Time;durP1;ratioP1;P1;durP2;ratioP2;P2;SDS_P1;SDS_P2;PMS_P1;PMS_P2;Temp;Humidity;BMP_temperature;BMP_pressure;BME280_temperature;BME280_humidity;BME280_pressure;Samples;Min_cycle;Max_cycle;Signal;HPM_P1;HPM_P2
2023/12/08 00:01:26;;;;;;;14.87;8.97;;;3.90;98.10;;;;;;5052022;28;20072;-76
2023/12/08 00:03:52;;;;;;;14.17;8.50;;;3.90;98.30;;;;;;5052016;28;20029;-76
2023/12/08 00:06:18;;;;;;;15.03;8.53;;;4.00;98.40;;;;;;5038216;28;20034;-75
2023/12/08 00:08:43;;;;;;;14.63;8.23;;;4.00;98.50;;;;;;5032290;28;20036;-76
2023/12/08 00:11:11;;;;;;;15.00;8.87;;;4.00;98.60;;;;;;5043970;28;20112;-75
2023/12/08 00:13:36;;;;;;;16.23;8.33;;;4.00;98.60;;;;;;5052743;28;20075;-76
2023/12/08 00:16:03;;;;;;;12.33;7.40;;;4.00;98.80;;;;;;5052187;28;20440;-75
2023/12/08 00:18:29;;;;;;;12.20;7.37;;;4.00;98.80;;;;;;5052303;28;20051;-76
2023/12/08 00:20:54;;;;;;;11.40;7.23;;;4.00;98.80;;;;;;5052575;28;20433;-76
2023/12/08 00:23:20;;;;;;;11.90;7.33;;;4.00;98.90;;;;;;5052400;28;20025;-75
2023/12/08 00:25:46;;;;;;;13.10;6.33;;;4.00;98.90;;;;;;5052264;28;20094;-75
2023/12/08 00:28:11;;;;;;;11.13;6.27;;;4.00;98.90;;;;;;5052246;28;20128;-75
2023/12/08 00:30:37;;;;;;;12.00;6.80;;;4.10;98.90;;;;;;5053776;28;20418;-75
2023/12/08 00:33:03;;;;;;;10.87;6.43;;;4.10;98.90;;;;;;5056182;28;20041;-75
2023/12/08 00:35:29;;;;;;;16.47;9.93;;;4.10;98.80;;;;;;5056148;28;20485;-76
2023/12/08 00:37:54;;;;;;;17.43;10.97;;;4.20;98.30;;;;;;5056144;28;20037;-72
2023/12/08 00:40:20;;;;;;;18.80;11.80;;;4.20;98.00;;;;;;5055658;28;20388;-75
2023/12/08 00:42:47;;;;;;;16.03;10.13;;;4.10;97.60;;;;;;5055677;28;20045;-75
2023/12/08 00:45:14;;;;;;;17.60;9.80;;;4.10;97.50;;;;;;5055774;28;20097;-75
2023/12/08 00:47:40;;;;;;;17.90;10.40;;;4.00;97.50;;;;;;5055868;28;20086;-72
2023/12/08 00:50:07;;;;;;;17.13;10.17;;;4.00;97.60;;;;;;5055253;28;20041;-73
2023/12/08 00:52:33;;;;;;;15.30;9.50;;;4.00;97.60;;;;;;5055539;28;20052;-74
2023/12/08 00:54:59;;;;;;;16.80;10.20;;;4.00;97.40;;;;;;5055831;28;20119;-75
2023/12/08 00:57:24;;;;;;;19.03;9.90;;;3.90;97.10;;;;;;5055159;28;20025;-70
2023/12/08 00:59:50;;;;;;;16.67;9.93;;;3.90;97.00;;;;;;5054942;28;20352;-72
2023/12/08 01:02:16;;;;;;;15.57;9.60;;;3.80;96.90;;;;;;5055430;28;20029;-72
2023/12/08 01:04:42;;;;;;;14.27;8.80;;;3.70;97.00;;;;;;5055542;28;20029;-72
2023/12/08 01:07:09;;;;;;;19.80;8.90;;;3.70;97.10;;;;;;5055622;28;20074;-70
2023/12/08 01:09:34;;;;;;;14.20;8.30;;;3.60;97.20;;;;;;5055491;28;20083;-75
2023/12/08 01:12:00;;;;;;;14.07;8.50;;;3.60;97.20;;;;;;5055327;28;20045;-75
2023/12/08 01:14:26;;;;;;;14.03;8.53;;;3.60;97.20;;;;;;5055731;28;20037;-75
2023/12/08 01:16:51;;;;;;;11.97;7.50;;;3.60;97.30;;;;;;5055876;28;20041;-76
2023/12/08 01:19:17;;;;;;;15.37;8.53;;;3.60;97.20;;;;;;5055551;28;20025;-72
2023/12/08 01:21:42;;;;;;;16.40;8.33;;;3.50;97.30;;;;;;5052242;28;20481;-73
2023/12/08 01:24:08;;;;;;;14.20;8.77;;;3.50;97.40;;;;;;5052916;28;20563;-73
2023/12/08 01:26:34;;;;;;;15.43;8.40;;;3.50;97.40;;;;;;5055175;28;20065;-66
2023/12/08 01:29:00;;;;;;;13.63;8.73;;;3.50;97.40;;;;;;5055236;28;20025;-62
2023/12/08 01:31:25;;;;;;;15.33;9.33;;;3.40;97.50;;;;;;5055251;28;20549;-62
2023/12/08 01:33:51;;;;;;;13.83;7.70;;;3.40;97.60;;;;;;5055196;28;20460;-62
2023/12/08 01:36:17;;;;;;;18.33;8.60;;;3.40;97.70;;;;;;5055336;28;20060;-62
2023/12/08 01:38:46;;;;;;;14.67;7.93;;;3.40;97.70;;;;;;5055313;28;20041;-62
2023/12/08 01:41:16;;;;;;;12.87;7.27;;;3.40;97.90;;;;;;5055103;28;20043;-62
2023/12/08 01:43:45;;;;;;;14.30;8.10;;;3.30;97.90;;;;;;5055085;28;20037;-63
2023/12/08 01:46:14;;;;;;;14.10;8.23;;;3.30;97.90;;;;;;5055257;28;20041;-62
2023/12/08 01:48:41;;;;;;;17.67;9.57;;;3.30;98.00;;;;;;5055228;28;20548;-62
2023/12/08 01:51:08;;;;;;;19.27;10.57;;;3.30;98.00;;;;;;5054986;28;20039;-62
2023/12/08 01:53:34;;;;;;;18.00;10.17;;;3.40;98.10;;;;;;5055209;28;20037;-62
2023/12/08 01:56:00;;;;;;;16.97;9.63;;;3.30;98.10;;;;;;5055002;28;20041;-62
2023/12/08 01:58:26;;;;;;;17.80;11.27;;;3.40;98.20;;;;;;5052771;28;20044;-63
2023/12/08 02:00:53;;;;;;;20.17;10.70;;;3.30;98.20;;;;;;5051449;28;20033;-62
2023/12/08 02:03:21;;;;;;;17.47;10.33;;;3.30;98.20;;;;;;5051496;28;20405;-63
2023/12/08 02:05:50;;;;;;;17.43;10.07;;;3.30;98.20;;;;;;5053307;28;20045;-62
2023/12/08 02:08:19;;;;;;;16.60;10.10;;;3.30;98.30;;;;;;5054019;28;20033;-62
2023/12/08 02:10:46;;;;;;;18.80;9.67;;;3.30;98.40;;;;;;5053706;28;20091;-62
2023/12/08 02:13:14;;;;;;;17.03;9.40;;;3.40;98.60;;;;;;5053137;28;20041;-62
2023/12/08 02:15:40;;;;;;;18.03;9.43;;;3.30;98.60;;;;;;5053865;28;20102;-64
2023/12/08 02:18:08;;;;;;;13.67;8.43;;;3.40;98.70;;;;;;5053817;28;20104;-62
2023/12/08 02:20:34;;;;;;;18.47;8.83;;;3.40;98.70;;;;;;5053297;28;20036;-76
2023/12/08 02:23:04;;;;;;;14.67;8.43;;;3.40;98.40;;;;;;5053724;28;20029;-76
2023/12/08 02:25:32;;;;;;;12.37;7.23;;;3.30;98.40;;;;;;5053477;28;20517;-76
2023/12/08 02:27:58;;;;;;;11.30;7.53;;;3.30;98.50;;;;;;5053478;28;20439;-76
2023/12/08 02:30:24;;;;;;;19.77;9.13;;;3.30;98.60;;;;;;5053726;28;20083;-75
2023/12/08 02:33:02;;;;;;;14.63;8.37;;;3.30;98.80;;;;;;5053376;28;20525;-75
2023/12/08 02:35:32;;;;;;;16.57;8.40;;;3.30;98.90;;;;;;5053037;28;20064;-75
2023/12/08 02:38:00;;;;;;;13.40;8.10;;;3.30;99.00;;;;;;5053173;28;20545;-75
2023/12/08 02:40:26;;;;;;;11.73;7.33;;;3.30;99.00;;;;;;5053547;28;20029;-76
2023/12/08 02:42:54;;;;;;;17.93;8.30;;;3.30;99.00;;;;;;5053484;28;20119;-62
2023/12/08 02:45:19;;;;;;;16.20;7.70;;;3.30;99.00;;;;;;5053761;28;20052;-62
2023/12/08 02:47:45;;;;;;;12.90;8.20;;;3.30;99.10;;;;;;5053834;28;20029;-62
2023/12/08 02:50:11;;;;;;;18.63;8.93;;;3.30;99.20;;;;;;5048292;28;20394;-62
2023/12/08 02:52:36;;;;;;;14.33;8.33;;;3.30;99.20;;;;;;5033129;28;20115;-62
2023/12/08 02:55:02;;;;;;;12.73;7.93;;;3.30;99.10;;;;;;5033180;28;20041;-62
2023/12/08 02:57:28;;;;;;;13.93;8.90;;;3.30;99.10;;;;;;5033781;28;20041;-62
2023/12/08 02:59:54;;;;;;;12.73;7.63;;;3.30;99.20;;;;;;5033722;28;20072;-62
2023/12/08 03:02:19;;;;;;;12.13;7.20;;;3.30;99.20;;;;;;5033811;28;20037;-62
2023/12/08 03:04:45;;;;;;;12.73;6.90;;;3.30;99.30;;;;;;5033598;28;20033;-62
2023/12/08 03:07:12;;;;;;;10.90;6.83;;;3.20;99.40;;;;;;5033327;28;20033;-62
2023/12/08 03:09:37;;;;;;;15.43;7.27;;;3.30;99.40;;;;;;5032655;28;20038;-62
2023/12/08 03:12:03;;;;;;;13.00;7.53;;;3.30;99.50;;;;;;5033360;28;20112;-64
2023/12/08 03:14:29;;;;;;;14.73;7.60;;;3.30;99.60;;;;;;5033513;28;20049;-62
2023/12/08 03:16:55;;;;;;;12.27;7.50;;;3.30;99.60;;;;;;5033197;28;20038;-62
2023/12/08 03:19:20;;;;;;;12.13;7.77;;;3.30;99.60;;;;;;5033484;28;20080;-62
2023/12/08 03:21:46;;;;;;;12.83;7.87;;;3.30;99.70;;;;;;5033260;28;20481;-63
2023/12/08 03:24:12;;;;;;;14.03;8.23;;;3.30;99.60;;;;;;5033385;28;20032;-62
2023/12/08 03:26:38;;;;;;;15.47;7.90;;;3.30;99.50;;;;;;5033052;28;20033;-62
2023/12/08 03:29:04;;;;;;;15.37;8.63;;;3.30;99.40;;;;;;5033164;28;20029;-62
2023/12/08 03:31:31;;;;;;;12.93;7.77;;;3.30;99.30;;;;;;5033265;28;20112;-66
2023/12/08 03:33:57;;;;;;;15.27;8.47;;;3.20;99.30;;;;;;5033268;28;20041;-62
2023/12/08 03:36:23;;;;;;;12.17;7.90;;;3.20;99.30;;;;;;5033189;28;20159;-62
2023/12/08 03:38:49;;;;;;;14.73;8.40;;;3.20;99.30;;;;;;5032933;28;20038;-62
2023/12/08 03:41:14;;;;;;;11.87;7.27;;;3.20;99.30;;;;;;5032798;28;20081;-62
2023/12/08 03:43:40;;;;;;;13.80;8.20;;;3.20;99.40;;;;;;5032917;28;20056;-62
2023/12/08 03:46:07;;;;;;;14.87;8.10;;;3.10;99.40;;;;;;5033212;28;20029;-62
2023/12/08 03:48:35;;;;;;;10.40;7.03;;;3.10;99.50;;;;;;5033146;28;20029;-62
2023/12/08 03:51:01;;;;;;;17.23;8.03;;;3.10;99.60;;;;;;5032738;28;20037;-62
2023/12/08 03:53:27;;;;;;;15.10;7.80;;;3.10;99.60;;;;;;5033026;28;20188;-62
2023/12/08 03:55:52;;;;;;;12.07;7.43;;;3.10;99.60;;;;;;5033025;28;20478;-64
2023/12/08 03:58:18;;;;;;;12.67;6.83;;;3.10;99.70;;;;;;5032798;28;20033;-62
2023/12/08 04:00:44;;;;;;;13.37;6.97;;;3.10;99.70;;;;;;5032914;28;20478;-62
2023/12/08 04:03:09;;;;;;;11.70;6.87;;;3.10;99.80;;;;;;5031320;28;20041;-62
2023/12/08 04:05:35;;;;;;;11.40;7.27;;;3.10;99.80;;;;;;5032045;28;20101;-63
2023/12/08 04:08:04;;;;;;;15.37;7.50;;;3.10;99.80;;;;;;5032819;28;20473;-63
2023/12/08 04:10:30;;;;;;;14.67;7.80;;;3.10;99.80;;;;;;5032927;28;20505;-62
2023/12/08 04:12:56;;;;;;;12.70;7.83;;;3.10;99.70;;;;;;5030390;28;20132;-63
2023/12/08 04:15:22;;;;;;;15.30;8.13;;;3.10;99.60;;;;;;5030007;28;20446;-63
2023/12/08 04:17:48;;;;;;;15.13;8.40;;;3.10;99.50;;;;;;5030931;28;20038;-62
2023/12/08 04:20:13;;;;;;;13.00;7.50;;;3.10;99.50;;;;;;5032276;28;20026;-65
2023/12/08 04:22:39;;;;;;;14.10;8.07;;;3.00;99.50;;;;;;5032494;28;20037;-62
2023/12/08 04:25:06;;;;;;;13.37;6.83;;;3.00;99.70;;;;;;5032410;28;20041;-64
2023/12/08 04:27:32;;;;;;;12.37;7.27;;;3.00;99.80;;;;;;5032233;28;20033;-62
2023/12/08 04:29:58;;;;;;;10.77;6.50;;;3.00;99.90;;;;;;5032193;28;20041;-63
2023/12/08 04:32:23;;;;;;;10.17;5.83;;;2.90;99.90;;;;;;5032069;28;20045;-62
2023/12/08 04:34:49;;;;;;;14.50;6.90;;;2.90;99.90;;;;;;5032484;28;20038;-62
2023/12/08 04:37:14;;;;;;;10.20;6.53;;;2.90;99.90;;;;;;5032524;28;20038;-62
2023/12/08 04:42:07;;;;;;;10.80;6.50;;;2.90;99.90;;;;;;5037141;23;20492;-74
2023/12/08 04:44:33;;;;;;;10.63;5.90;;;2.90;99.90;;;;;;5032638;28;20116;-74
2023/12/08 04:46:59;;;;;;;16.17;7.83;;;2.90;99.90;;;;;;5032299;28;20661;-75
2023/12/08 04:49:25;;;;;;;10.13;5.87;;;2.90;99.90;;;;;;5032441;28;20029;-76
2023/12/08 04:51:51;;;;;;;11.83;6.63;;;2.90;99.90;;;;;;5032643;28;20504;-75
2023/12/08 04:54:16;;;;;;;9.60;6.07;;;2.90;99.90;;;;;;5032331;28;20040;-76
2023/12/08 04:56:42;;;;;;;10.70;5.57;;;2.90;99.90;;;;;;5014594;28;20043;-72
2023/12/08 04:59:09;;;;;;;10.43;5.37;;;2.90;99.90;;;;;;5032261;28;20029;-75
2023/12/08 05:01:38;;;;;;;11.73;5.83;;;2.90;99.90;;;;;;5032464;28;20029;-76
2023/12/08 05:04:04;;;;;;;9.70;4.97;;;2.90;99.90;;;;;;5032437;28;20061;-76
2023/12/08 05:06:29;;;;;;;9.50;5.50;;;2.90;99.90;;;;;;5032298;28;20456;-76
2023/12/08 05:08:56;;;;;;;7.63;5.00;;;2.90;99.90;;;;;;5032160;28;20037;-76
2023/12/08 05:11:22;;;;;;;9.30;4.63;;;2.90;99.90;;;;;;5032413;28;20071;-75
2023/12/08 05:13:48;;;;;;;8.63;4.77;;;3.00;99.90;;;;;;5031967;28;20030;-74
2023/12/08 05:16:15;;;;;;;9.97;5.10;;;2.90;99.90;;;;;;5032308;28;20037;-76
2023/12/08 05:18:41;;;;;;;9.93;5.23;;;3.00;99.90;;;;;;5036057;28;20400;-76
2023/12/08 05:21:07;;;;;;;10.80;5.70;;;3.00;99.90;;;;;;5035746;28;20108;-75
2023/12/08 05:23:33;;;;;;;8.67;5.60;;;3.00;99.90;;;;;;5035622;28;20040;-75
2023/12/08 05:25:59;;;;;;;9.67;5.70;;;3.00;99.90;;;;;;5035326;28;20026;-75
2023/12/08 05:28:25;;;;;;;13.57;5.80;;;3.00;99.90;;;;;;5041090;28;20029;-74
2023/12/08 05:30:53;;;;;;;10.73;6.10;;;3.00;99.90;;;;;;5037514;28;20175;-72
2023/12/08 05:33:19;;;;;;;9.50;5.83;;;3.00;99.90;;;;;;5035141;28;20111;-75
2023/12/08 05:35:44;;;;;;;9.50;5.17;;;3.00;99.90;;;;;;5035164;28;20033;-72
2023/12/08 05:38:10;;;;;;;10.93;6.07;;;3.00;99.90;;;;;;5035264;28;20041;-72
2023/12/08 05:40:36;;;;;;;15.00;6.17;;;3.00;99.90;;;;;;5034934;28;20041;-62
2023/12/08 05:43:02;;;;;;;16.23;6.60;;;3.00;99.90;;;;;;5035463;28;20046;-62
2023/12/08 05:45:28;;;;;;;21.53;8.17;;;3.00;99.90;;;;;;5034536;28;20029;-65
2023/12/08 05:47:54;;;;;;;17.30;8.67;;;2.90;99.90;;;;;;5034985;28;20128;-62
2023/12/08 05:50:20;;;;;;;20.27;8.53;;;2.90;99.90;;;;;;5035223;28;20036;-62
2023/12/08 05:52:45;;;;;;;20.27;8.23;;;2.90;99.90;;;;;;5035072;28;20080;-62
2023/12/08 05:55:11;;;;;;;14.90;8.00;;;2.90;99.90;;;;;;5035250;28;20440;-62
2023/12/08 05:57:37;;;;;;;16.53;8.53;;;2.80;99.90;;;;;;5034864;28;20060;-62
2023/12/08 06:00:06;;;;;;;20.53;9.27;;;2.80;99.90;;;;;;5034978;28;20462;-62
2023/12/08 06:02:32;;;;;;;16.13;8.90;;;2.80;99.90;;;;;;5035025;28;20480;-62
2023/12/08 06:04:57;;;;;;;13.57;7.23;;;2.80;99.90;;;;;;5034750;28;20113;-62
2023/12/08 06:07:23;;;;;;;11.33;7.00;;;2.70;99.90;;;;;;5034659;28;20397;-63
2023/12/08 06:09:49;;;;;;;13.33;7.73;;;2.70;99.90;;;;;;5034897;28;20108;-62
2023/12/08 06:12:16;;;;;;;13.53;7.37;;;2.70;99.90;;;;;;5034679;28;20491;-62
2023/12/08 06:14:42;;;;;;;11.03;7.00;;;2.70;99.90;;;;;;5034387;28;20489;-75
2023/12/08 06:17:07;;;;;;;14.10;7.87;;;2.70;99.90;;;;;;5034695;28;20036;-74
2023/12/08 06:19:33;;;;;;;13.37;6.93;;;2.70;99.90;;;;;;5034463;28;20037;-75
2023/12/08 06:21:59;;;;;;;14.07;7.57;;;2.70;99.90;;;;;;5034675;28;20096;-76
2023/12/08 06:24:24;;;;;;;13.83;7.13;;;2.60;99.90;;;;;;5034703;28;20164;-76
2023/12/08 06:26:50;;;;;;;12.37;7.77;;;2.60;99.90;;;;;;5034738;28;20040;-75
2023/12/08 06:29:17;;;;;;;15.37;7.67;;;2.60;99.90;;;;;;5033487;28;20073;-75
2023/12/08 06:31:46;;;;;;;15.27;7.73;;;2.60;99.90;;;;;;5033936;28;20049;-75
2023/12/08 06:34:12;;;;;;;11.50;6.90;;;2.60;99.90;;;;;;5034757;28;20452;-75
2023/12/08 06:36:48;;;;;;;17.17;7.97;;;2.60;99.90;;;;;;5034367;28;20037;-75
2023/12/08 06:39:16;;;;;;;19.80;7.57;;;2.60;99.90;;;;;;5016412;28;20029;-74
2023/12/08 06:41:42;;;;;;;12.70;7.23;;;2.60;99.90;;;;;;5033950;28;20057;-75
2023/12/08 06:44:08;;;;;;;13.63;6.37;;;2.70;99.90;;;;;;5034174;28;20040;-75
2023/12/08 06:46:34;;;;;;;11.53;7.10;;;2.70;99.90;;;;;;5034456;28;20116;-74
2023/12/08 06:48:59;;;;;;;13.50;7.23;;;2.70;99.90;;;;;;5034254;28;20049;-76
2023/12/08 06:51:25;;;;;;;12.30;6.40;;;2.70;99.90;;;;;;5034119;28;20446;-76
2023/12/08 06:53:51;;;;;;;14.27;7.53;;;2.70;99.90;;;;;;5033804;28;20033;-75
2023/12/08 06:56:16;;;;;;;14.77;7.20;;;2.70;99.90;;;;;;5034001;28;20037;-76
2023/12/08 06:58:42;;;;;;;16.17;7.40;;;2.70;99.90;;;;;;5033954;28;20061;-75
2023/12/08 07:01:08;;;;;;;13.80;7.23;;;2.70;99.90;;;;;;5034029;28;20033;-74
2023/12/08 07:03:33;;;;;;;16.70;8.00;;;2.70;99.90;;;;;;5033854;28;20117;-75
2023/12/08 07:05:59;;;;;;;12.63;7.40;;;2.70;99.90;;;;;;5033888;28;20482;-72
2023/12/08 07:08:24;;;;;;;16.10;7.67;;;2.70;99.90;;;;;;5033689;28;20473;-76
2023/12/08 07:10:50;;;;;;;13.67;7.70;;;2.70;99.90;;;;;;5033731;28;20480;-72
2023/12/08 07:13:16;;;;;;;15.93;7.17;;;2.70;99.90;;;;;;5033920;28;20045;-74
2023/12/08 07:15:42;;;;;;;12.93;6.70;;;2.70;99.90;;;;;;5033736;28;20041;-75
2023/12/08 07:18:07;;;;;;;12.50;6.70;;;2.70;99.90;;;;;;5033466;28;20038;-75
2023/12/08 07:20:34;;;;;;;14.47;8.03;;;2.80;99.90;;;;;;5033257;28;20033;-74
2023/12/08 07:22:59;;;;;;;15.70;8.70;;;2.80;99.90;;;;;;5033218;28;20073;-76
2023/12/08 07:25:25;;;;;;;18.83;9.00;;;2.80;99.90;;;;;;5033193;28;20076;-74
2023/12/08 07:27:51;;;;;;;18.10;9.20;;;2.90;99.90;;;;;;5033276;28;20378;-75
2023/12/08 07:30:17;;;;;;;16.57;9.20;;;2.90;99.90;;;;;;5033217;28;20385;-74
2023/12/08 07:32:43;;;;;;;15.10;8.57;;;2.90;99.90;;;;;;5033134;28;20053;-75
2023/12/08 07:35:08;;;;;;;13.67;8.17;;;2.90;99.90;;;;;;5033245;28;20036;-74
2023/12/08 07:37:38;;;;;;;14.27;8.50;;;2.90;99.90;;;;;;5033402;28;20116;-71
2023/12/08 07:40:05;;;;;;;14.73;8.40;;;3.00;99.90;;;;;;5032912;28;20042;-76
2023/12/08 07:42:30;;;;;;;20.83;8.83;;;3.00;99.90;;;;;;5033359;28;20042;-74
2023/12/08 07:44:56;;;;;;;14.43;8.03;;;3.00;99.90;;;;;;5033291;28;20057;-73
2023/12/08 07:47:22;;;;;;;12.87;8.00;;;3.00;99.90;;;;;;5033298;28;20037;-75
2023/12/08 07:49:47;;;;;;;20.17;9.83;;;3.00;99.90;;;;;;5033129;28;20117;-69
2023/12/08 07:52:14;;;;;;;16.30;8.73;;;3.00;99.90;;;;;;5032918;28;20049;-76
2023/12/08 07:54:40;;;;;;;20.53;8.57;;;3.00;99.90;;;;;;5032763;28;20033;-74
2023/12/08 07:57:07;;;;;;;16.60;8.90;;;3.10;99.90;;;;;;5032936;28;20440;-74
2023/12/08 07:59:33;;;;;;;32.27;10.20;;;3.10;99.90;;;;;;5032908;28;20116;-75
2023/12/08 08:01:59;;;;;;;19.40;11.23;;;3.10;99.90;;;;;;5032945;28;20042;-77
2023/12/08 08:04:25;;;;;;;18.33;9.60;;;3.10;99.90;;;;;;5032975;28;20091;-76
2023/12/08 08:06:51;;;;;;;23.37;9.37;;;3.20;99.90;;;;;;5032877;28;20037;-75
2023/12/08 08:09:18;;;;;;;16.60;8.80;;;3.20;99.90;;;;;;5032955;28;20045;-76
2023/12/08 08:11:44;;;;;;;13.23;8.80;;;3.20;99.90;;;;;;5032870;28;20044;-76
2023/12/08 08:14:10;;;;;;;18.23;8.17;;;3.30;99.90;;;;;;5032621;28;20041;-75
2023/12/08 08:16:36;;;;;;;17.97;9.17;;;3.30;99.90;;;;;;5032725;28;20037;-75
2023/12/08 08:19:02;;;;;;;21.23;9.37;;;3.30;99.90;;;;;;5033026;28;20389;-71
2023/12/08 08:21:28;;;;;;;18.40;9.60;;;3.40;99.90;;;;;;5034791;28;20034;-72
2023/12/08 08:23:54;;;;;;;15.93;8.93;;;3.40;99.90;;;;;;5035634;28;20057;-76
2023/12/08 08:26:19;;;;;;;18.03;9.40;;;3.40;99.90;;;;;;5035289;28;20039;-73
2023/12/08 08:28:45;;;;;;;20.87;8.70;;;3.50;99.90;;;;;;5035582;28;20025;-73
2023/12/08 08:31:12;;;;;;;15.40;8.57;;;3.50;99.90;;;;;;5033309;28;20029;-76
2023/12/08 08:33:38;;;;;;;17.50;8.80;;;3.60;99.90;;;;;;5034538;28;20556;-76
2023/12/08 08:36:05;;;;;;;23.47;9.77;;;3.60;99.90;;;;;;5035768;28;20037;-66
2023/12/08 08:38:31;;;;;;;21.43;9.30;;;3.70;99.90;;;;;;5026397;28;20045;-63
2023/12/08 08:40:57;;;;;;;26.13;10.77;;;3.70;99.90;;;;;;5032439;28;20057;-62
2023/12/08 08:43:23;;;;;;;18.10;10.50;;;3.80;99.90;;;;;;5032581;28;20115;-62
2023/12/08 08:45:48;;;;;;;18.47;10.03;;;3.80;99.90;;;;;;5032458;28;20036;-62
2023/12/08 08:48:14;;;;;;;22.60;9.30;;;3.80;99.90;;;;;;5032214;28;20060;-73
2023/12/08 08:50:39;;;;;;;17.00;9.67;;;3.90;99.90;;;;;;5032192;28;20080;-71
2023/12/08 08:53:05;;;;;;;19.80;10.07;;;4.00;99.90;;;;;;5034235;28;20048;-63
2023/12/08 08:55:31;;;;;;;15.37;9.27;;;4.00;99.90;;;;;;5033557;28;20092;-63
2023/12/08 08:57:57;;;;;;;17.10;10.03;;;4.10;99.90;;;;;;5032861;28;20127;-62
2023/12/08 09:00:25;;;;;;;18.30;10.60;;;4.10;99.90;;;;;;5033410;28;20076;-62
2023/12/08 09:02:51;;;;;;;19.60;10.40;;;4.10;99.90;;;;;;5033717;28;20397;-62
2023/12/08 09:05:20;;;;;;;18.53;10.47;;;4.20;99.90;;;;;;5036142;28;20033;-63
2023/12/08 09:07:46;;;;;;;23.40;10.63;;;4.20;99.90;;;;;;5036097;28;20115;-63
2023/12/08 09:10:12;;;;;;;19.67;11.03;;;4.30;99.90;;;;;;5035942;28;20138;-62
2023/12/08 09:12:38;;;;;;;18.27;11.00;;;4.30;99.90;;;;;;5034653;28;20037;-63
2023/12/08 09:15:04;;;;;;;20.40;11.10;;;4.40;99.90;;;;;;5032714;28;20068;-63
2023/12/08 09:17:30;;;;;;;18.70;10.67;;;4.40;99.90;;;;;;5032680;28;20091;-63
2023/12/08 09:19:56;;;;;;;15.27;9.97;;;4.40;99.90;;;;;;5033799;28;20037;-65
2023/12/08 09:22:22;;;;;;;17.20;10.00;;;4.50;99.90;;;;;;5034512;28;20038;-63
2023/12/08 09:24:47;;;;;;;14.97;8.93;;;4.50;99.90;;;;;;5034925;28;20034;-62
2023/12/08 09:27:13;;;;;;;15.23;9.93;;;4.60;99.90;;;;;;5035482;28;20391;-62
2023/12/08 09:29:39;;;;;;;19.27;9.73;;;4.70;99.90;;;;;;5034058;28;20029;-62
2023/12/08 09:32:05;;;;;;;20.37;10.67;;;4.70;99.90;;;;;;5035263;28;20033;-62
2023/12/08 09:34:31;;;;;;;20.77;10.27;;;4.80;99.90;;;;;;5035178;28;20037;-62
2023/12/08 09:36:57;;;;;;;18.00;10.87;;;4.80;99.90;;;;;;5035001;28;20030;-63
2023/12/08 09:39:23;;;;;;;18.33;11.70;;;4.90;99.90;;;;;;5035426;28;20409;-62
2023/12/08 09:41:57;;;;;;;23.27;11.50;;;5.00;99.90;;;;;;5035213;28;20057;-62
2023/12/08 09:44:23;;;;;;;21.80;11.60;;;5.00;99.90;;;;;;5035096;28;20042;-63
2023/12/08 09:46:54;;;;;;;18.50;11.17;;;5.10;99.90;;;;;;5035470;28;20029;-62
2023/12/08 09:49:35;;;;;;;22.30;10.97;;;5.10;99.90;;;;;;5034719;28;20033;-62
2023/12/08 09:52:01;;;;;;;19.43;11.10;;;5.20;99.90;;;;;;5034688;28;20038;-68
2023/12/08 09:54:28;;;;;;;20.73;11.80;;;5.20;99.90;;;;;;5034781;28;20056;-61
2023/12/08 09:56:54;;;;;;;16.23;10.47;;;5.20;99.90;;;;;;5035019;28;20044;-62
2023/12/08 09:59:24;;;;;;;15.07;10.37;;;5.20;99.90;;;;;;5034747;28;20042;-62
2023/12/08 10:01:50;;;;;;;23.30;11.10;;;5.30;99.90;;;;;;5034951;28;20185;-62
2023/12/08 10:04:16;;;;;;;17.87;10.60;;;5.30;99.90;;;;;;5033623;28;20040;-64
2023/12/08 10:06:43;;;;;;;16.13;9.57;;;5.30;99.90;;;;;;5034558;28;20044;-61
2023/12/08 10:09:11;;;;;;;18.63;10.53;;;5.30;99.90;;;;;;5026767;28;20393;-65
2023/12/08 10:11:38;;;;;;;16.53;9.67;;;5.30;99.90;;;;;;5034866;28;20033;-62
2023/12/08 10:14:05;;;;;;;15.80;10.47;;;5.40;99.90;;;;;;5034581;28;20042;-67
2023/12/08 10:16:31;;;;;;;17.60;10.27;;;5.40;99.90;;;;;;5034830;28;20033;-62
2023/12/08 10:19:06;;;;;;;19.00;9.77;;;5.50;99.90;;;;;;5016836;28;20044;-63
2023/12/08 10:21:36;;;;;;;26.67;11.40;;;5.60;99.90;;;;;;5016137;28;20080;-63
2023/12/08 10:24:03;;;;;;;19.57;10.87;;;5.60;99.90;;;;;;5034289;28;20041;-65
2023/12/08 10:26:31;;;;;;;22.63;11.60;;;5.70;99.90;;;;;;5033379;28;20041;-62
2023/12/08 10:28:57;;;;;;;25.60;12.37;;;5.70;99.90;;;;;;5034326;28;20393;-62
2023/12/08 10:31:23;;;;;;;20.67;11.67;;;5.80;99.90;;;;;;5034226;28;20041;-62
2023/12/08 10:33:50;;;;;;;25.17;12.57;;;5.90;99.90;;;;;;5034260;28;20042;-66
2023/12/08 10:36:16;;;;;;;26.63;12.37;;;5.90;99.90;;;;;;5034202;28;20035;-65
2023/12/08 10:38:42;;;;;;;23.53;11.33;;;6.00;99.90;;;;;;5034323;28;20444;-65
2023/12/08 10:41:11;;;;;;;24.00;11.10;;;6.00;99.90;;;;;;5033383;28;20045;-66
2023/12/08 10:43:40;;;;;;;27.80;11.40;;;6.10;99.90;;;;;;5024520;28;20076;-62
2023/12/08 10:46:07;;;;;;;21.03;11.57;;;6.10;99.90;;;;;;5033060;28;20037;-61
2023/12/08 10:48:35;;;;;;;18.10;10.87;;;6.20;99.90;;;;;;5033196;28;20444;-63
2023/12/08 10:51:01;;;;;;;17.07;8.80;;;6.20;99.90;;;;;;5032896;28;20029;-63
2023/12/08 10:53:27;;;;;;;13.60;9.23;;;6.20;99.90;;;;;;5032489;28;20124;-66
2023/12/08 10:56:09;;;;;;;11.13;6.90;;;6.30;99.90;;;;;;5032775;28;20063;-62
2023/12/08 10:58:36;;;;;;;14.90;8.45;;;6.40;99.90;;;;;;5032800;28;20034;-64
2023/12/08 11:01:12;;;;;;;15.70;9.80;;;6.40;99.90;;;;;;5033092;28;20103;-63
2023/12/08 11:03:41;;;;;;;12.07;7.13;;;6.40;99.90;;;;;;5032879;28;20057;-64
2023/12/08 11:06:13;;;;;;;22.73;12.13;;;6.50;99.90;;;;;;5032511;28;20088;-64
2023/12/08 11:08:46;;;;;;;40.88;15.25;;;6.50;99.90;;;;;;5032783;28;20034;-63
2023/12/08 11:11:12;;;;;;;13.30;7.95;;;6.60;99.90;;;;;;5032888;28;20119;-63
2023/12/08 11:13:44;;;;;;;12.43;6.93;;;6.60;99.90;;;;;;5032006;28;20489;-64
2023/12/08 11:16:24;;;;;;;10.27;6.50;;;6.70;99.90;;;;;;5032008;28;20117;-66
2023/12/08 11:18:52;;;;;;;10.80;6.87;;;6.70;99.90;;;;;;5032308;28;20037;-63
2023/12/08 11:21:18;;;;;;;22.77;10.50;;;6.80;99.90;;;;;;5032361;28;20042;-63
2023/12/08 11:23:45;;;;;;;13.80;7.87;;;6.80;99.90;;;;;;5032218;28;20436;-66
2023/12/08 11:26:16;;;;;;;12.47;7.90;;;6.90;99.90;;;;;;5032122;28;20498;-77
2023/12/08 11:29:06;;;;;;;15.33;8.57;;;7.00;99.90;;;;;;5032198;28;20034;-76
2023/12/08 11:31:44;;;;;;;17.07;11.00;;;7.10;99.60;;;;;;5032239;28;20037;-77
2023/12/08 11:34:37;;;;;;;19.53;9.67;;;7.10;99.40;;;;;;5032783;28;20097;-76
2023/12/08 11:37:03;;;;;;;16.05;9.43;;;7.20;99.30;;;;;;5032609;28;20061;-77
2023/12/08 11:39:35;;;;;;;20.37;10.50;;;7.20;99.10;;;;;;5032374;28;20490;-76
2023/12/08 11:42:11;;;;;;;20.50;10.30;;;7.30;99.20;;;;;;4993144;28;1155819;-76
2023/12/08 11:44:39;;;;;;;16.63;9.67;;;7.40;99.20;;;;;;5033066;28;20061;-76
2023/12/08 11:47:08;;;;;;;17.80;10.43;;;7.50;99.00;;;;;;5033202;28;20065;-73
2023/12/08 11:49:45;;;;;;;15.60;9.70;;;7.50;99.00;;;;;;5033094;28;20033;-75
2023/12/08 11:52:13;;;;;;;20.77;13.03;;;7.60;98.90;;;;;;5032898;28;20080;-75
2023/12/08 11:55:03;;;;;;;17.97;11.57;;;7.70;99.00;;;;;;5032946;28;20033;-75
2023/12/08 11:57:29;;;;;;;13.97;9.20;;;7.70;98.90;;;;;;5032711;28;20037;-75
2023/12/08 11:59:55;;;;;;;17.57;9.60;;;7.70;98.60;;;;;;5032671;28;20064;-75
2023/12/08 12:02:22;;;;;;;15.50;9.10;;;7.80;98.60;;;;;;5032536;28;20025;-72
2023/12/08 12:04:49;;;;;;;15.10;8.70;;;7.80;98.60;;;;;;5032661;28;20044;-74
2023/12/08 12:07:21;;;;;;;12.67;8.37;;;7.80;98.50;;;;;;5032886;28;20104;-76
2023/12/08 12:09:50;;;;;;;12.75;8.70;;;7.80;98.30;;;;;;5032932;28;20117;-76
2023/12/08 12:12:31;;;;;;;19.90;9.33;;;7.80;98.20;;;;;;5032682;28;20448;-76
2023/12/08 12:15:03;;;;;;;18.47;9.60;;;7.90;98.20;;;;;;5029829;28;20045;-64
2023/12/08 12:17:28;;;;;;;14.37;9.33;;;7.90;98.10;;;;;;5030079;28;20038;-63
2023/12/08 12:19:55;;;;;;;14.07;9.67;;;8.00;98.00;;;;;;5032483;28;20084;-63
2023/12/08 12:22:21;;;;;;;19.07;10.27;;;8.00;98.00;;;;;;5032450;28;20050;-63
2023/12/08 12:24:48;;;;;;;12.93;9.10;;;8.10;98.20;;;;;;5032800;28;20048;-63
2023/12/08 12:27:14;;;;;;;16.17;9.33;;;8.10;98.50;;;;;;5035098;28;20095;-63
2023/12/08 12:29:40;;;;;;;22.27;9.33;;;8.10;97.90;;;;;;5036766;28;20096;-64
2023/12/08 12:32:08;;;;;;;15.20;8.87;;;8.20;97.80;;;;;;5036449;28;20508;-64
2023/12/08 12:34:35;;;;;;;17.67;8.73;;;8.20;97.70;;;;;;5036555;28;20037;-63
2023/12/08 12:37:01;;;;;;;12.53;8.10;;;8.30;97.80;;;;;;5036591;28;20025;-65
2023/12/08 12:39:26;;;;;;;15.07;9.13;;;8.30;97.60;;;;;;5033616;28;20512;-64
2023/12/08 12:41:59;;;;;;;11.50;8.27;;;8.40;97.70;;;;;;5033703;28;20052;-64
2023/12/08 12:44:45;;;;;;;11.75;8.18;;;8.40;97.80;;;;;;5034504;28;20358;-63
2023/12/08 12:47:12;;;;;;;11.83;7.93;;;8.40;97.70;;;;;;5035870;28;20485;-63